Delafield, Wisconsin
Current Conditions -  °F | °C
As of 1:45 PM on Thursday 18 Dec 2014 (Local Time) from KUES Reporting Station
Overcast Overcast  
Wind Chill: 18°   Ceiling: 400
Heat Index: 25°   Visibility: 7mi
Dew Point: 25°   Wind: 6mph
Humidity: 100%   Direction: 280°W
Pressure: 30.22"   Gusts: NA
Location:  43.06°N, 88.4°W
Report Text: KUES 181945Z 28005KT 7SM OVC004 M04/M04 A3022
Loading
Personal Weather Stations






























Interactive Weather Map New forecast layout! Learn more

10-Day Weather Forecast

Advertisements
Track Severe Weather on mobile